Airfield :
LOGIN :

Register | Disclaimer

   EN    FR    IT 

 










Legend :    VFR   Marginal VFR   IFR   Intensive IFR   Very Intensive IFR
Visi :
Ceiling :
>= 8 km
>= 3000ft
5 to 8 km
1000 to 3000 ft
1500m to 5 km
500 to 1000 ft
800 to 1500m
200 to 500 ft
< 800m
< 200 ft
Symbols :   Thunderstorms  Fog  Heavy snow  Heavy precipitations  Wind > 20 kt
SIGMETs :     Misc.  Thunderstorms  Icing  Turbulence  Mountain Waves  Volcanic Ashes






- Airport Elevation : 280 ft
- IATA code : FAE


EKVG - Vagar

CURRENT METAR :
  • 242150Z AUTO 16012KT 9999 DZ BKN008/// 04/03 Q1002

EXPIRED METARs :
  • 242120Z AUTO 16012KT 9999 DZ BKN009/// 04/03 Q1003
  • 242050Z AUTO 17009KT 9999 DZ OVC008/// 04/03 Q1004
  • 242020Z AUTO 19011KT 9999 DZ BKN009/// 04/03 Q1004
  • 241950Z AUTO 21010KT 7000 -RA OVC013/// 04/02 Q1005
  • 241920Z AUTO 18004KT 9999 -RA BKN021/// 03/02 Q1005

Expired Forecast.



MET'MAP, your aeronautical weather chart ! - Copyright ORBIFLY December 2007 - Disclaimer

ORBIFLY MET'MAP TEAM :

Programming & Development : Alexandra Zaïnal
Concept & original design : Baudouin d'Aumeries
Assistance for programming : Marc-Olivier Méhu
Technical & hardware support : Manuel Goepfert

Contact : metmap@orbifly.com




SOURCES & CREDITS :

   NOAA